Time;durP1;ratioP1;P1;durP2;ratioP2;P2;SDS_P1;SDS_P2;PMS_P1;PMS_P2;Temp;Humidity;BMP_temperature;BMP_pressure;BME280_temperature;BME280_humidity;BME280_pressure;Samples;Min_cycle;Max_cycle;Signal;HPM_P1;HPM_P2
2023/05/11 00:01:43;;;;;;;0.87;0.60;;;;;;;12.05;100.00;100115.41;5029809;28;20202;-76
2023/05/11 00:04:09;;;;;;;1.03;0.60;;;;;;;12.08;100.00;100114.53;5030556;28;20826;-76
2023/05/11 00:06:34;;;;;;;0.93;0.60;;;;;;;12.11;100.00;100109.25;5027539;28;20288;-76
2023/05/11 00:08:59;;;;;;;0.87;0.70;;;;;;;12.14;100.00;100114.38;5031111;28;20655;-76
2023/05/11 00:11:25;;;;;;;1.10;0.73;;;;;;;12.17;100.00;100104.84;5029576;28;20682;-77
2023/05/11 00:13:50;;;;;;;1.83;0.77;;;;;;;12.21;100.00;100116.00;5028840;28;20676;-76
2023/05/11 00:16:15;;;;;;;2.10;0.80;;;;;;;12.24;100.00;100118.53;5029500;28;20652;-77
2023/05/11 00:18:41;;;;;;;0.80;0.70;;;;;;;12.29;100.00;100115.88;5026752;28;21068;-76
2023/05/11 00:21:06;;;;;;;1.13;0.80;;;;;;;12.30;100.00;100113.22;5028890;28;20217;-76
2023/05/11 00:23:32;;;;;;;0.70;0.70;;;;;;;12.33;100.00;100109.72;5030317;28;20267;-77
2023/05/11 00:25:57;;;;;;;0.67;0.50;;;;;;;12.34;100.00;100112.28;5027274;28;20792;-76
2023/05/11 00:28:22;;;;;;;0.67;0.50;;;;;;;12.38;100.00;100105.28;5029979;28;20622;-77
2023/05/11 00:30:48;;;;;;;0.50;0.50;;;;;;;12.41;100.00;100112.16;5027645;28;20216;-76
2023/05/11 00:33:13;;;;;;;1.00;0.70;;;;;;;12.43;100.00;100113.84;5025789;28;20230;-76
2023/05/11 00:35:38;;;;;;;1.67;0.70;;;;;;;12.46;100.00;100099.94;5027436;28;20348;-77
2023/05/11 00:38:04;;;;;;;0.67;0.60;;;;;;;12.46;100.00;100103.41;5030542;28;20230;-76
2023/05/11 00:40:33;;;;;;;0.60;0.60;;;;;;;12.48;100.00;100103.38;5009926;28;20199;-76
2023/05/11 00:42:58;;;;;;;0.67;0.50;;;;;;;12.47;100.00;100097.34;5028304;28;20215;-77
2023/05/11 00:45:24;;;;;;;0.63;0.60;;;;;;;12.47;100.00;100096.47;5031840;28;20232;-77
2023/05/11 00:47:50;;;;;;;0.53;0.50;;;;;;;12.48;100.00;100103.38;5032221;28;20184;-78
2023/05/11 00:50:17;;;;;;;1.90;0.53;;;;;;;12.48;100.00;100104.22;5033622;28;20193;-77
2023/05/11 00:52:43;;;;;;;0.67;0.60;;;;;;;12.49;100.00;100099.91;5030626;28;21296;-76
2023/05/11 00:55:10;;;;;;;0.93;0.80;;;;;;;12.50;100.00;100102.44;5027109;28;20217;-77
2023/05/11 00:57:37;;;;;;;1.37;0.50;;;;;;;12.50;100.00;100096.41;5030822;28;20261;-76
2023/05/11 01:00:03;;;;;;;0.93;0.60;;;;;;;12.52;100.00;100101.56;5027996;28;20240;-76
2023/05/11 01:02:29;;;;;;;0.90;0.63;;;;;;;12.52;100.00;100101.56;5033000;28;20221;-76
2023/05/11 01:04:55;;;;;;;1.47;0.60;;;;;;;12.52;100.00;100097.25;5038617;28;20218;-76
2023/05/11 01:07:33;;;;;;;0.77;0.50;;;;;;;12.50;100.00;100099.00;5031886;28;20258;-76
2023/05/11 01:10:11;;;;;;;0.70;0.60;;;;;;;12.48;100.00;100096.44;5031003;28;20279;-77
2023/05/11 01:13:06;;;;;;;0.60;0.60;;;;;;;12.47;100.00;100102.53;5032120;28;20194;-75
2023/05/11 01:15:39;;;;;;;1.27;0.70;;;;;;;12.44;100.00;100094.81;5030626;28;20279;-76
2023/05/11 01:18:28;;;;;;;0.53;0.53;;;;;;;12.39;100.00;100091.44;5032349;28;20188;-75
2023/05/11 01:21:01;;;;;;;0.87;0.80;;;;;;;12.35;100.00;100093.25;5025722;28;20641;-76
2023/05/11 01:23:38;;;;;;;0.87;0.80;;;;;;;12.31;100.00;100090.75;5015298;28;20250;-80
2023/05/11 01:26:29;;;;;;;1.53;0.80;;;;;;;12.25;100.00;100096.88;5029065;28;20189;-78
2023/05/11 01:29:09;;;;;;;0.67;0.63;;;;;;;12.19;100.00;100097.84;5034794;28;20274;-77
2023/05/11 01:31:39;;;;;;;0.70;0.70;;;;;;;12.16;100.00;100094.47;5025721;28;20425;-76
2023/05/11 01:34:11;;;;;;;0.97;0.70;;;;;;;12.14;100.00;100101.41;5030064;28;20212;-77
2023/05/11 01:36:48;;;;;;;0.60;0.60;;;;;;;12.11;100.00;100099.75;5013691;28;20347;-77
2023/05/11 01:39:16;;;;;;;1.13;0.80;;;;;;;12.09;100.00;100093.72;5031421;28;20187;-76
2023/05/11 01:41:50;;;;;;;1.27;0.83;;;;;;;12.07;100.00;100092.91;5027077;28;20277;-77
2023/05/11 01:44:19;;;;;;;0.67;0.67;;;;;;;12.06;100.00;100095.53;5031829;28;20216;-77
2023/05/11 01:46:46;;;;;;;0.60;0.60;;;;;;;12.02;100.00;100093.00;5030275;28;20595;-77
2023/05/11 01:49:14;;;;;;;1.10;0.80;;;;;;;12.01;100.00;100099.06;5029079;28;20196;-77
2023/05/11 01:51:41;;;;;;;1.10;0.70;;;;;;;11.98;100.00;100096.50;5025314;28;20721;-77
2023/05/11 01:54:08;;;;;;;0.77;0.73;;;;;;;11.97;100.00;100107.72;5031636;28;20207;-76
2023/05/11 01:56:36;;;;;;;1.00;0.90;;;;;;;11.97;100.00;100107.72;5010401;28;20214;-76
2023/05/11 01:59:02;;;;;;;0.80;0.80;;;;;;;11.95;100.00;100104.31;5030237;28;20959;-77
2023/05/11 02:01:29;;;;;;;1.37;0.87;;;;;;;11.92;100.00;100104.38;5028771;28;20200;-76
2023/05/11 02:03:55;;;;;;;1.00;0.80;;;;;;;11.90;100.00;100101.78;5026877;28;22112;-77
2023/05/11 02:06:23;;;;;;;2.30;0.80;;;;;;;11.90;100.00;100099.19;5027449;28;20215;-76
2023/05/11 02:08:50;;;;;;;1.47;0.83;;;;;;;11.87;100.00;100106.19;5020016;28;20188;-77
2023/05/11 02:11:17;;;;;;;1.70;0.77;;;;;;;11.84;100.00;100099.31;5029525;28;20201;-77
2023/05/11 02:13:44;;;;;;;0.70;0.70;;;;;;;11.83;100.00;100102.81;5011146;28;20201;-76
2023/05/11 02:16:10;;;;;;;1.00;0.90;;;;;;;11.84;100.00;100108.84;5010083;28;20291;-77
2023/05/11 02:18:39;;;;;;;1.17;0.80;;;;;;;11.83;100.00;100110.59;5030584;28;20193;-76
2023/05/11 02:21:08;;;;;;;0.93;0.90;;;;;;;11.83;100.00;100109.72;5031251;28;20198;-77
2023/05/11 02:23:33;;;;;;;1.37;1.00;;;;;;;11.82;100.00;100108.00;5027929;28;20199;-77
2023/05/11 02:26:00;;;;;;;1.27;1.07;;;;;;;11.80;100.00;100108.03;5026290;28;20561;-77
2023/05/11 02:28:25;;;;;;;0.80;0.67;;;;;;;11.80;100.00;100108.03;5031049;28;20195;-77
2023/05/11 02:30:54;;;;;;;1.27;1.10;;;;;;;11.80;100.00;100109.78;5049679;28;20186;-78
2023/05/11 02:33:26;;;;;;;1.60;1.07;;;;;;;11.77;100.00;100108.09;5051198;28;20175;-78
2023/05/11 02:35:55;;;;;;;0.60;0.60;;;;;;;11.78;100.00;100112.38;5031029;28;20222;-76
2023/05/11 02:38:24;;;;;;;1.33;0.97;;;;;;;11.81;100.00;100117.53;5011140;28;20243;-76
2023/05/11 02:40:56;;;;;;;1.40;1.10;;;;;;;11.81;100.00;100109.75;5024734;28;20187;-77
2023/05/11 02:43:24;;;;;;;1.30;1.00;;;;;;;11.79;100.00;100103.72;5030304;28;20191;-76
2023/05/11 02:45:52;;;;;;;1.20;1.10;;;;;;;11.80;100.00;100107.19;5009166;28;20183;-78
2023/05/11 02:48:28;;;;;;;1.30;1.20;;;;;;;11.78;100.00;100103.78;5028433;28;20228;-76
2023/05/11 02:50:55;;;;;;;1.53;1.10;;;;;;;11.78;100.00;100103.78;5027067;28;20218;-76
2023/05/11 02:53:26;;;;;;;1.50;1.17;;;;;;;11.78;100.00;100112.38;5030729;28;20196;-76
2023/05/11 02:55:53;;;;;;;1.10;1.00;;;;;;;11.79;100.00;100108.91;5020336;28;20716;-76
2023/05/11 02:58:19;;;;;;;1.37;1.10;;;;;;;11.83;100.00;100107.13;5012742;28;20193;-76
2023/05/11 03:00:45;;;;;;;1.40;1.30;;;;;;;11.83;100.00;100108.00;5028104;28;20184;-77
2023/05/11 03:03:11;;;;;;;2.30;1.17;;;;;;;11.84;100.00;100107.09;5025761;28;20184;-77
2023/05/11 03:05:36;;;;;;;1.70;1.60;;;;;;;11.85;100.00;100106.22;5026727;28;20561;-77
2023/05/11 03:08:02;;;;;;;1.60;1.43;;;;;;;11.83;100.00;100105.41;5009145;28;20216;-76
2023/05/11 03:10:28;;;;;;;1.50;1.33;;;;;;;11.83;100.00;100104.53;5027453;28;20180;-77
2023/05/11 03:12:55;;;;;;;2.37;1.30;;;;;;;11.81;100.00;100104.56;5029276;28;20202;-77
2023/05/11 03:15:21;;;;;;;2.50;1.53;;;;;;;11.82;100.00;100105.41;5031360;28;20220;-77
2023/05/11 03:17:46;;;;;;;1.67;1.40;;;;;;;11.81;100.00;100103.69;5021001;28;20179;-76
2023/05/11 03:20:14;;;;;;;2.23;1.90;;;;;;;11.80;100.00;100102.84;5012921;28;20237;-76
2023/05/11 03:22:40;;;;;;;2.13;1.93;;;;;;;11.81;100.00;100108.88;5027114;28;20189;-76
2023/05/11 03:25:06;;;;;;;1.73;1.63;;;;;;;11.79;100.00;100103.72;5028970;28;20199;-77
2023/05/11 03:27:33;;;;;;;2.27;1.97;;;;;;;11.80;100.00;100099.41;5023664;28;20193;-76
2023/05/11 03:30:01;;;;;;;2.33;1.60;;;;;;;11.80;100.00;100099.41;5028759;28;20749;-76
2023/05/11 03:32:26;;;;;;;1.90;1.80;;;;;;;11.80;100.00;100102.00;5027913;28;20184;-76
2023/05/11 03:34:52;;;;;;;2.47;2.10;;;;;;;11.79;100.00;100100.28;5007025;28;20206;-76
2023/05/11 03:37:18;;;;;;;2.30;1.97;;;;;;;11.81;100.00;100104.56;5027133;28;20199;-77
2023/05/11 03:39:46;;;;;;;2.10;1.90;;;;;;;11.80;100.00;100097.66;5027393;28;20203;-76
2023/05/11 03:42:14;;;;;;;3.13;1.63;;;;;;;11.79;100.00;100101.13;5027758;28;20181;-78
2023/05/11 03:44:42;;;;;;;1.80;1.70;;;;;;;11.79;100.00;100092.50;5026548;28;20938;-76
2023/05/11 03:47:09;;;;;;;1.97;1.77;;;;;;;11.78;100.00;100098.59;5006509;28;20184;-77
2023/05/11 03:49:36;;;;;;;2.10;1.90;;;;;;;11.78;100.00;100094.25;5028235;28;20183;-77
2023/05/11 03:52:03;;;;;;;1.60;1.50;;;;;;;11.78;100.00;100107.19;5010842;28;20250;-76
2023/05/11 03:54:28;;;;;;;2.23;2.03;;;;;;;11.79;100.00;100101.13;5010715;28;20205;-76
2023/05/11 03:56:54;;;;;;;2.47;1.77;;;;;;;11.81;100.00;100099.38;5027634;28;20196;-76
2023/05/11 03:59:19;;;;;;;1.87;1.67;;;;;;;11.83;100.00;100094.16;5024431;28;20251;-77
2023/05/11 04:01:45;;;;;;;1.83;1.70;;;;;;;11.82;100.00;100090.72;5026736;28;20689;-77
2023/05/11 04:04:10;;;;;;;2.93;1.83;;;;;;;11.84;100.00;100098.47;5030023;28;20568;-76
2023/05/11 04:06:36;;;;;;;2.60;2.10;;;;;;;11.84;100.00;100098.47;5013139;28;20179;-76
2023/05/11 04:09:01;;;;;;;2.50;2.20;;;;;;;11.82;100.00;100097.63;5027448;28;20183;-77
2023/05/11 04:11:28;;;;;;;2.07;1.93;;;;;;;11.82;100.00;100095.03;5027600;28;20225;-76
2023/05/11 04:13:54;;;;;;;2.50;2.30;;;;;;;11.83;100.00;100100.22;5009148;28;20216;-77
2023/05/11 04:16:19;;;;;;;2.63;2.43;;;;;;;11.83;100.00;100094.16;5025043;28;20203;-77
2023/05/11 04:18:44;;;;;;;2.33;2.13;;;;;;;11.84;100.00;100101.06;5026901;28;20184;-76
2023/05/11 04:21:10;;;;;;;2.27;2.17;;;;;;;11.86;100.00;100101.88;5026821;28;20194;-77
2023/05/11 04:23:36;;;;;;;2.57;2.37;;;;;;;11.88;100.00;100102.72;5031272;28;20252;-77
2023/05/11 04:26:01;;;;;;;2.70;2.50;;;;;;;11.88;100.00;100102.72;5014896;28;20797;-77
2023/05/11 04:28:26;;;;;;;2.77;2.40;;;;;;;11.88;100.00;100108.75;5033465;28;20254;-77
2023/05/11 04:30:56;;;;;;;2.80;2.23;;;;;;;11.90;100.00;100108.75;5032238;28;20214;-78
2023/05/11 04:33:22;;;;;;;2.57;2.37;;;;;;;11.91;100.00;100105.25;5030746;28;20877;-76
2023/05/11 04:35:52;;;;;;;2.67;2.47;;;;;;;11.92;100.00;100108.69;5025861;28;20207;-79
2023/05/11 04:38:18;;;;;;;2.13;2.03;;;;;;;11.92;100.00;100109.56;5032475;28;20229;-76
2023/05/11 04:40:43;;;;;;;2.40;2.20;;;;;;;11.94;100.00;100107.81;5029328;28;20181;-77
2023/05/11 04:43:09;;;;;;;2.80;2.40;;;;;;;11.96;100.00;100112.97;5030988;28;20187;-77
2023/05/11 04:45:34;;;;;;;2.70;2.50;;;;;;;11.97;100.00;100114.66;5031632;28;20291;-77
2023/05/11 04:47:59;;;;;;;3.20;2.30;;;;;;;11.98;100.00;100112.06;5008478;28;20216;-77
2023/05/11 04:50:25;;;;;;;2.80;2.60;;;;;;;11.99;100.00;100111.19;5030832;28;20220;-77
2023/05/11 04:52:50;;;;;;;2.57;2.37;;;;;;;11.99;100.00;100100.81;5013049;28;20198;-76
2023/05/11 04:55:16;;;;;;;2.77;2.57;;;;;;;12.00;100.00;100115.50;5015985;28;20251;-77
2023/05/11 04:57:41;;;;;;;2.77;2.57;;;;;;;12.02;100.00;100113.72;5029909;28;20200;-75
2023/05/11 05:00:07;;;;;;;3.00;2.23;;;;;;;12.03;100.00;100104.19;5016627;28;20290;-76
2023/05/11 05:02:33;;;;;;;2.27;2.07;;;;;;;12.03;100.00;100112.84;5026582;28;20193;-76
2023/05/11 05:04:59;;;;;;;2.77;2.40;;;;;;;12.06;100.00;100116.28;5033575;28;20237;-77
2023/05/11 05:07:24;;;;;;;2.77;2.40;;;;;;;12.06;100.00;100109.34;5013629;28;20586;-78
2023/05/11 05:09:50;;;;;;;2.23;2.03;;;;;;;12.09;100.00;100118.81;5030383;28;20197;-77
2023/05/11 05:12:15;;;;;;;2.27;2.07;;;;;;;12.09;100.00;100118.81;5030097;28;20215;-76
2023/05/11 05:14:40;;;;;;;2.00;1.90;;;;;;;12.08;100.00;100115.34;5029604;28;20685;-76
2023/05/11 05:17:06;;;;;;;2.80;2.37;;;;;;;12.09;100.00;100119.66;5025931;28;20309;-76
2023/05/11 05:19:31;;;;;;;2.60;2.40;;;;;;;12.08;100.00;100125.72;5026325;28;20213;-78
2023/05/11 05:21:57;;;;;;;2.80;2.30;;;;;;;12.10;100.00;100123.97;5031060;28;20257;-76
2023/05/11 05:24:22;;;;;;;3.73;2.30;;;;;;;12.13;100.00;100126.53;5032509;28;20598;-77
2023/05/11 05:26:47;;;;;;;2.90;2.27;;;;;;;12.18;100.00;100121.25;5028849;28;21058;-75
2023/05/11 05:29:13;;;;;;;2.97;2.77;;;;;;;12.20;100.00;100129.84;5030917;28;20590;-76
2023/05/11 05:31:38;;;;;;;2.50;2.17;;;;;;;12.20;100.00;100125.50;5006755;28;20188;-76
2023/05/11 05:34:03;;;;;;;2.50;2.20;;;;;;;12.23;100.00;100126.34;5026758;28;20215;-76
2023/05/11 05:36:29;;;;;;;2.40;2.20;;;;;;;12.24;100.00;100125.47;5020768;28;20208;-75
2023/05/11 05:38:54;;;;;;;2.77;2.50;;;;;;;12.26;100.00;100128.88;5029218;28;20284;-76
2023/05/11 05:41:21;;;;;;;2.40;2.23;;;;;;;12.30;100.00;100127.94;5024385;28;20253;-77
2023/05/11 05:43:47;;;;;;;2.60;2.40;;;;;;;12.35;100.00;100133.88;5015873;28;20731;-76
2023/05/11 05:46:12;;;;;;;2.83;2.63;;;;;;;12.39;100.00;100135.56;5031269;28;20326;-78
2023/05/11 05:48:38;;;;;;;2.67;2.10;;;;;;;12.44;100.00;100141.53;5030624;28;20272;-76
2023/05/11 05:51:03;;;;;;;2.37;2.20;;;;;;;12.52;100.00;100131.00;5030659;28;20667;-76
2023/05/11 05:53:28;;;;;;;2.60;2.40;;;;;;;12.60;100.00;100128.25;5032086;28;20195;-76
2023/05/11 05:55:54;;;;;;;2.73;2.53;;;;;;;12.69;100.00;100135.84;5033457;28;20219;-76
2023/05/11 05:58:19;;;;;;;4.07;2.70;;;;;;;12.74;100.00;100130.53;5012351;28;20200;-77
2023/05/11 06:00:44;;;;;;;2.40;2.30;;;;;;;12.80;100.00;100125.25;5032156;28;20232;-76
2023/05/11 06:03:10;;;;;;;3.57;2.33;;;;;;;12.87;100.00;100131.16;5030127;28;20190;-76
2023/05/11 06:05:35;;;;;;;3.17;2.40;;;;;;;12.93;100.00;100128.44;5034941;28;20616;-77
2023/05/11 06:08:00;;;;;;;2.40;2.20;;;;;;;13.00;100.00;100131.75;5035104;28;20215;-77
2023/05/11 06:10:26;;;;;;;2.60;2.40;;;;;;;13.03;100.00;100135.13;5031283;28;20254;-76
2023/05/11 06:12:52;;;;;;;2.87;2.17;;;;;;;13.10;100.00;100131.50;5033497;28;20241;-77
2023/05/11 06:15:17;;;;;;;3.20;2.40;;;;;;;13.21;100.00;100130.44;5031141;28;20308;-77
2023/05/11 06:17:42;;;;;;;2.53;2.33;;;;;;;13.29;100.00;100135.47;5031399;28;20186;-77
2023/05/11 06:20:08;;;;;;;2.97;2.40;;;;;;;13.34;100.00;100134.47;5032151;28;20189;-77
2023/05/11 06:22:34;;;;;;;2.20;2.00;;;;;;;13.43;100.00;100129.97;5028905;28;20207;-77
2023/05/11 06:24:59;;;;;;;2.50;2.30;;;;;;;13.52;100.00;100134.97;5011234;28;20205;-77
2023/05/11 06:27:25;;;;;;;2.20;2.10;;;;;;;13.60;100.00;100139.97;5030821;28;20787;-76
2023/05/11 06:29:50;;;;;;;2.50;2.30;;;;;;;13.69;100.00;100129.34;5028501;28;20218;-77
2023/05/11 06:32:16;;;;;;;2.30;2.10;;;;;;;13.75;100.00;100128.34;5027432;28;20581;-77
2023/05/11 06:34:41;;;;;;;3.87;2.03;;;;;;;13.81;100.00;100125.59;5030538;28;20295;-76
2023/05/11 06:37:06;;;;;;;2.40;2.20;;;;;;;13.87;100.00;100128.03;5030011;28;20211;-76
2023/05/11 06:39:36;;;;;;;3.13;2.70;;;;;;;13.97;100.00;100131.25;5006548;28;20250;-77
2023/05/11 06:42:02;;;;;;;1.90;1.80;;;;;;;14.04;100.00;100138.03;5023999;28;20555;-77
2023/05/11 06:44:27;;;;;;;2.13;1.97;;;;;;;14.14;100.00;100136.03;5023069;28;20204;-77
2023/05/11 06:46:53;;;;;;;3.23;2.10;;;;;;;14.23;100.00;100127.09;5023613;28;20605;-78
2023/05/11 06:49:18;;;;;;;2.27;2.07;;;;;;;14.31;100.00;100127.75;5023270;28;20223;-78
2023/05/11 06:51:43;;;;;;;2.70;2.50;;;;;;;14.41;100.00;100124.00;5028787;28;20741;-77
2023/05/11 06:54:09;;;;;;;2.50;2.30;;;;;;;14.48;100.00;100124.69;5030304;28;20625;-77
2023/05/11 06:56:34;;;;;;;3.10;2.80;;;;;;;14.52;100.00;100121.13;5010782;28;20215;-77
2023/05/11 06:58:59;;;;;;;2.90;2.60;;;;;;;14.52;100.00;100126.31;5028818;28;20215;-77
2023/05/11 07:01:25;;;;;;;2.70;2.50;;;;;;;14.55;100.00;100127.97;5041403;28;20213;-77
2023/05/11 07:03:53;;;;;;;2.60;2.40;;;;;;;14.53;100.00;100124.56;5037662;28;20779;-76
2023/05/11 07:06:18;;;;;;;2.50;2.30;;;;;;;14.48;100.00;100133.38;5013951;28;20211;-77
2023/05/11 07:08:44;;;;;;;2.83;2.10;;;;;;;14.43;100.00;100134.41;5032324;28;20886;-77
2023/05/11 07:11:11;;;;;;;2.10;2.00;;;;;;;14.36;100.00;100136.31;5030185;28;20285;-76
2023/05/11 07:13:37;;;;;;;2.33;2.13;;;;;;;14.38;100.00;100134.50;5030538;28;20197;-76
2023/05/11 07:16:02;;;;;;;2.30;2.10;;;;;;;14.45;100.00;100138.66;5023301;28;20203;-76
2023/05/11 07:18:27;;;;;;;2.00;1.80;;;;;;;14.50;100.00;100135.91;5031168;28;20226;-77
2023/05/11 07:20:53;;;;;;;2.30;2.10;;;;;;;14.49;100.00;100134.22;5008842;28;20188;-78
2023/05/11 07:23:18;;;;;;;2.20;2.10;;;;;;;14.44;100.00;100138.72;5028061;28;20230;-77
2023/05/11 07:25:44;;;;;;;2.27;1.97;;;;;;;14.44;100.00;100142.16;5028551;28;21007;-79
2023/05/11 07:28:10;;;;;;;1.70;1.60;;;;;;;14.49;100.00;100139.41;5007203;28;20273;-77
2023/05/11 07:30:35;;;;;;;2.37;1.80;;;;;;;14.59;100.00;100138.28;5025713;28;20206;-77
2023/05/11 07:33:01;;;;;;;2.00;1.90;;;;;;;14.67;100.00;100143.25;5023003;28;20242;-77
2023/05/11 07:35:27;;;;;;;2.00;1.90;;;;;;;14.80;100.00;100143.78;5029667;28;20244;-78
2023/05/11 07:37:52;;;;;;;2.10;1.90;;;;;;;14.93;100.00;100142.53;5029980;28;20214;-77
2023/05/11 07:40:18;;;;;;;1.63;1.53;;;;;;;15.03;100.00;100140.53;5031432;28;20291;-76
2023/05/11 07:42:43;;;;;;;3.23;2.30;;;;;;;15.15;99.66;100146.25;5030395;28;20667;-77
2023/05/11 07:45:09;;;;;;;2.00;1.90;;;;;;;15.20;99.33;100146.97;5024454;28;20715;-78
2023/05/11 07:47:34;;;;;;;2.00;1.90;;;;;;;15.23;99.24;100145.13;5010343;28;20187;-77
2023/05/11 07:49:59;;;;;;;1.70;1.60;;;;;;;15.26;99.18;100146.81;5026702;28;20195;-77
2023/05/11 07:52:25;;;;;;;1.70;1.60;;;;;;;15.26;99.06;100136.38;5003910;28;20198;-77
2023/05/11 07:54:51;;;;;;;1.73;1.60;;;;;;;15.27;99.18;100142.44;5007984;28;20211;-76
2023/05/11 07:57:16;;;;;;;2.00;1.80;;;;;;;15.27;98.99;100134.59;5026362;28;20683;-75
2023/05/11 07:59:41;;;;;;;2.60;1.87;;;;;;;15.23;99.11;100134.69;5027535;28;20199;-76
2023/05/11 08:02:08;;;;;;;1.70;1.60;;;;;;;15.24;98.68;100148.59;5026467;28;20951;-75
2023/05/11 08:04:34;;;;;;;1.80;1.70;;;;;;;15.29;98.52;100148.44;5024874;28;20206;-76
2023/05/11 08:06:59;;;;;;;1.97;1.87;;;;;;;15.38;98.27;100148.16;5025530;28;20186;-76
2023/05/11 08:09:24;;;;;;;2.10;1.90;;;;;;;15.50;98.10;100147.75;5027871;28;20191;-75
2023/05/11 08:11:50;;;;;;;2.23;2.10;;;;;;;15.60;97.97;100150.94;5027415;28;20180;-77
2023/05/11 08:14:16;;;;;;;2.80;2.17;;;;;;;15.66;96.63;100149.88;5026786;28;20326;-76
2023/05/11 08:16:41;;;;;;;2.27;2.07;;;;;;;15.64;96.65;100156.94;5027672;28;20242;-78
2023/05/11 08:19:07;;;;;;;2.37;2.20;;;;;;;15.64;96.50;100156.94;5024456;28;20185;-78
2023/05/11 08:21:32;;;;;;;2.07;1.97;;;;;;;15.60;96.48;100145.72;5026377;28;20218;-77
2023/05/11 08:23:58;;;;;;;2.10;2.00;;;;;;;15.59;96.14;100148.41;5029119;28;20292;-77
2023/05/11 08:26:23;;;;;;;2.43;2.23;;;;;;;15.59;95.90;100145.78;5028131;28;20185;-77
2023/05/11 08:28:50;;;;;;;2.50;2.30;;;;;;;15.60;95.62;100145.72;5027352;28;20737;-76
2023/05/11 08:31:17;;;;;;;2.40;2.20;;;;;;;15.63;95.68;100150.84;5027498;28;20194;-77
2023/05/11 08:33:42;;;;;;;2.30;2.10;;;;;;;15.65;95.49;100154.25;5028141;28;20253;-76
2023/05/11 08:36:08;;;;;;;2.00;1.87;;;;;;;15.69;95.66;100147.19;5010335;28;20329;-76
2023/05/11 08:38:34;;;;;;;1.80;1.70;;;;;;;15.74;95.45;100147.91;5029062;28;21001;-76
2023/05/11 08:41:00;;;;;;;2.30;2.10;;;;;;;15.75;95.19;100162.66;5025059;28;20179;-77
2023/05/11 08:43:27;;;;;;;2.17;1.97;;;;;;;15.77;95.26;100152.16;5028956;28;20183;-77
2023/05/11 08:45:58;;;;;;;2.37;2.17;;;;;;;15.78;95.29;100151.25;5029211;28;20927;-76
2023/05/11 08:48:24;;;;;;;2.07;1.97;;;;;;;15.78;95.08;100154.72;5010155;28;20193;-78
2023/05/11 08:50:49;;;;;;;1.97;1.87;;;;;;;15.83;95.37;100146.75;5027668;28;20272;-76
2023/05/11 08:53:15;;;;;;;2.20;2.00;;;;;;;15.95;94.49;100141.13;5022453;28;20200;-78
2023/05/11 08:55:42;;;;;;;2.30;2.10;;;;;;;16.09;94.71;100145.91;5028760;28;20249;-77
2023/05/11 08:58:08;;;;;;;2.90;1.90;;;;;;;16.28;94.02;100150.47;5028850;28;20185;-76
2023/05/11 09:00:33;;;;;;;2.00;1.90;;;;;;;16.45;93.36;100145.50;5025333;28;20211;-75
2023/05/11 09:02:59;;;;;;;2.20;1.97;;;;;;;16.62;92.85;100146.66;5030681;28;20185;-77
2023/05/11 09:05:26;;;;;;;1.73;1.63;;;;;;;16.75;92.67;100142.69;5029958;28;20217;-76
2023/05/11 09:07:54;;;;;;;1.60;1.50;;;;;;;16.86;91.83;100144.06;5032740;28;20937;-75
2023/05/11 09:10:19;;;;;;;1.73;1.63;;;;;;;16.90;91.12;100141.28;5033013;28;20210;-75
2023/05/11 09:12:45;;;;;;;2.20;2.00;;;;;;;16.96;90.79;100148.06;5032863;28;20208;-77
2023/05/11 09:15:11;;;;;;;1.70;1.60;;;;;;;16.99;90.54;100141.84;5033140;28;20202;-76
2023/05/11 09:17:36;;;;;;;2.00;1.90;;;;;;;16.95;89.67;100146.34;5030067;28;20194;-76
2023/05/11 09:20:06;;;;;;;2.67;1.97;;;;;;;16.90;90.39;100143.88;5030623;28;20663;-76
2023/05/11 09:22:46;;;;;;;2.40;2.20;;;;;;;16.82;89.59;100140.69;5013975;28;20278;-75
2023/05/11 09:25:13;;;;;;;1.87;1.77;;;;;;;16.72;90.23;100142.78;5031535;28;20210;-76
2023/05/11 09:27:43;;;;;;;2.10;2.00;;;;;;;16.73;90.03;100139.28;5029696;28;20550;-78
2023/05/11 09:30:13;;;;;;;2.07;1.90;;;;;;;16.75;89.94;100141.84;5030540;28;20180;-75
2023/05/11 09:32:49;;;;;;;2.00;1.90;;;;;;;16.80;89.65;100139.06;5031469;28;20184;-76
2023/05/11 09:35:28;;;;;;;3.90;2.00;;;;;;;16.91;89.74;100134.28;5031289;28;20210;-76
2023/05/11 09:38:08;;;;;;;2.30;2.10;;;;;;;17.00;89.32;100136.59;5012682;28;20188;-77
2023/05/11 09:40:43;;;;;;;2.33;2.13;;;;;;;17.05;89.09;100131.19;5030470;28;20191;-77
2023/05/11 09:43:17;;;;;;;1.70;1.60;;;;;;;17.11;88.99;100137.94;5030269;28;20236;-76
2023/05/11 09:45:45;;;;;;;1.90;1.70;;;;;;;17.13;88.77;100138.72;5031003;28;20200;-76
2023/05/11 09:48:19;;;;;;;2.13;2.03;;;;;;;17.13;88.88;100139.56;5022723;28;20184;-76
2023/05/11 09:50:46;;;;;;;2.23;1.70;;;;;;;17.14;89.03;100133.41;5028814;28;20265;-76
2023/05/11 09:53:12;;;;;;;2.20;2.00;;;;;;;17.19;88.87;100134.09;5026423;28;20282;-76
2023/05/11 09:55:37;;;;;;;1.80;1.70;;;;;;;17.26;88.55;100133.84;5010503;28;20674;-76
2023/05/11 09:58:03;;;;;;;1.70;1.60;;;;;;;17.33;88.28;100135.31;5009481;28;20224;-76
2023/05/11 10:00:29;;;;;;;1.97;1.87;;;;;;;17.44;88.20;100135.75;5029053;28;20687;-75
2023/05/11 10:03:06;;;;;;;2.00;1.80;;;;;;;17.55;87.82;100127.47;5028511;28;20490;-77
2023/05/11 10:05:33;;;;;;;1.90;1.70;;;;;;;17.68;87.72;100139.13;5028304;28;20613;-76
2023/05/11 10:08:00;;;;;;;1.60;1.50;;;;;;;17.88;87.28;100134.84;5026542;28;20226;-76
2023/05/11 10:10:28;;;;;;;2.07;1.87;;;;;;;18.06;86.64;100132.41;5027674;28;20356;-76
2023/05/11 10:12:56;;;;;;;1.80;1.70;;;;;;;18.25;85.42;100129.84;5014026;28;20183;-77
2023/05/11 10:15:27;;;;;;;2.10;1.90;;;;;;;18.43;84.97;100117.69;5027653;28;20219;-76
2023/05/11 10:17:57;;;;;;;3.03;2.13;;;;;;;18.59;83.91;100129.19;5019462;28;20196;-77
2023/05/11 10:20:24;;;;;;;2.00;1.90;;;;;;;18.73;83.18;100119.84;5011415;28;20277;-77
2023/05/11 10:22:52;;;;;;;1.80;1.70;;;;;;;18.85;82.78;100121.91;5028659;28;20532;-76
2023/05/11 10:25:19;;;;;;;1.90;1.80;;;;;;;19.00;82.56;100116.88;5028205;28;20913;-76
2023/05/11 10:27:45;;;;;;;1.97;1.67;;;;;;;19.11;82.12;100116.38;5028473;28;20199;-76
2023/05/11 10:30:12;;;;;;;1.93;1.60;;;;;;;19.17;81.77;100105.63;5024631;28;20191;-77
2023/05/11 10:32:37;;;;;;;1.87;1.77;;;;;;;19.17;81.49;100114.31;5028088;28;20213;-76
2023/05/11 10:35:05;;;;;;;1.80;1.70;;;;;;;19.23;81.19;100110.56;5002718;28;20211;-76
2023/05/11 10:37:31;;;;;;;1.90;1.80;;;;;;;19.28;81.09;100119.06;5029057;28;20172;-77
2023/05/11 10:39:57;;;;;;;2.10;2.00;;;;;;;19.39;80.13;100110.69;5005826;28;20257;-76
2023/05/11 10:42:52;;;;;;;2.13;2.00;;;;;;;19.46;79.34;100116.47;5011303;28;20179;-77
2023/05/11 10:45:27;;;;;;;2.53;1.80;;;;;;;19.57;79.77;100111.53;5024531;28;20662;-76
2023/05/11 10:48:15;;;;;;;2.20;2.00;;;;;;;19.67;79.20;100111.94;5027384;28;20206;-76
2023/05/11 10:51:17;;;;;;;2.07;1.87;;;;;;;19.75;78.90;100109.75;5024627;28;20180;-77
2023/05/11 10:54:01;;;;;;;1.93;1.83;;;;;;;19.80;78.39;100101.69;5025423;28;20378;-77
2023/05/11 10:56:45;;;;;;;2.13;1.90;;;;;;;19.90;78.13;100108.19;5025999;28;20211;-76
2023/05/11 10:59:35;;;;;;;2.37;1.80;;;;;;;19.89;76.90;100103.88;5031023;28;20188;-76
2023/05/11 11:02:02;;;;;;;2.17;1.60;;;;;;;19.85;77.31;100104.91;5029900;28;20182;-76
2023/05/11 11:04:46;;;;;;;1.97;1.80;;;;;;;19.84;77.02;100102.38;5032407;28;20241;-77
2023/05/11 11:07:16;;;;;;;2.20;1.80;;;;;;;19.93;77.39;100104.56;5027227;28;20538;-78
2023/05/11 11:09:58;;;;;;;2.20;2.00;;;;;;;20.12;76.95;100099.19;5032422;28;20191;-77
2023/05/11 11:12:26;;;;;;;2.07;1.77;;;;;;;20.25;76.49;100097.66;5018753;28;20273;-76
2023/05/11 11:14:55;;;;;;;2.07;1.93;;;;;;;20.35;76.47;100103.25;5023237;28;20822;-76
2023/05/11 11:17:24;;;;;;;1.87;1.77;;;;;;;20.37;76.05;100096.13;5019787;28;20216;-76
2023/05/11 11:19:49;;;;;;;2.10;2.00;;;;;;;20.44;76.13;100093.19;4998099;28;20792;-77
2023/05/11 11:22:33;;;;;;;1.93;1.83;;;;;;;20.53;75.53;100097.94;5017155;28;20294;-76